sensor_id;sensor_type;location;lat;lon;timestamp;P1;durP1;ratioP1;P2;durP2;ratioP2
15063;SDS011;7631;52.088;5.088;2023-02-10T00:01:10;10.47;;;8.17;;
15063;SDS011;7631;52.088;5.088;2023-02-10T00:03:35;9.37;;;7.93;;
15063;SDS011;7631;52.088;5.088;2023-02-10T00:06:01;8.20;;;7.30;;
15063;SDS011;7631;52.088;5.088;2023-02-10T00:08:26;11.07;;;8.23;;
15063;SDS011;7631;52.088;5.088;2023-02-10T00:10:55;11.93;;;7.87;;
15063;SDS011;7631;52.088;5.088;2023-02-10T00:13:21;10.63;;;8.47;;
15063;SDS011;7631;52.088;5.088;2023-02-10T00:15:46;9.03;;;6.87;;
15063;SDS011;7631;52.088;5.088;2023-02-10T00:18:11;9.83;;;7.97;;
15063;SDS011;7631;52.088;5.088;2023-02-10T00:20:36;9.40;;;7.43;;
15063;SDS011;7631;52.088;5.088;2023-02-10T00:23:02;9.33;;;7.13;;
15063;SDS011;7631;52.088;5.088;2023-02-10T00:25:27;9.73;;;7.23;;
15063;SDS011;7631;52.088;5.088;2023-02-10T00:27:52;9.83;;;7.37;;
15063;SDS011;7631;52.088;5.088;2023-02-10T00:30:17;8.53;;;7.50;;
15063;SDS011;7631;52.088;5.088;2023-02-10T00:32:42;9.83;;;7.80;;
15063;SDS011;7631;52.088;5.088;2023-02-10T00:35:08;8.37;;;7.47;;
15063;SDS011;7631;52.088;5.088;2023-02-10T00:37:33;8.57;;;7.33;;
15063;SDS011;7631;52.088;5.088;2023-02-10T00:39:58;9.37;;;6.90;;
15063;SDS011;7631;52.088;5.088;2023-02-10T00:42:23;9.00;;;7.20;;
15063;SDS011;7631;52.088;5.088;2023-02-10T00:44:49;10.80;;;7.50;;
15063;SDS011;7631;52.088;5.088;2023-02-10T00:47:14;9.80;;;7.30;;
15063;SDS011;7631;52.088;5.088;2023-02-10T00:49:39;9.27;;;7.50;;
15063;SDS011;7631;52.088;5.088;2023-02-10T00:52:04;7.57;;;6.80;;
15063;SDS011;7631;52.088;5.088;2023-02-10T00:54:29;7.77;;;6.80;;
15063;SDS011;7631;52.088;5.088;2023-02-10T00:56:54;8.73;;;6.70;;
15063;SDS011;7631;52.088;5.088;2023-02-10T00:59:20;8.53;;;6.83;;
15063;SDS011;7631;52.088;5.088;2023-02-10T01:01:45;9.27;;;6.97;;
15063;SDS011;7631;52.088;5.088;2023-02-10T01:04:10;9.40;;;7.90;;
15063;SDS011;7631;52.088;5.088;2023-02-10T01:06:36;8.63;;;6.67;;
15063;SDS011;7631;52.088;5.088;2023-02-10T01:09:01;9.23;;;6.77;;
15063;SDS011;7631;52.088;5.088;2023-02-10T01:11:26;10.07;;;7.13;;
15063;SDS011;7631;52.088;5.088;2023-02-10T01:13:51;8.93;;;6.90;;
15063;SDS011;7631;52.088;5.088;2023-02-10T01:16:17;7.43;;;6.30;;
15063;SDS011;7631;52.088;5.088;2023-02-10T01:18:42;7.67;;;6.43;;
15063;SDS011;7631;52.088;5.088;2023-02-10T01:21:08;7.93;;;6.50;;
15063;SDS011;7631;52.088;5.088;2023-02-10T01:23:33;9.13;;;6.60;;
15063;SDS011;7631;52.088;5.088;2023-02-10T01:25:59;7.87;;;6.90;;
15063;SDS011;7631;52.088;5.088;2023-02-10T01:28:24;8.27;;;6.60;;
15063;SDS011;7631;52.088;5.088;2023-02-10T01:30:49;7.93;;;6.57;;
15063;SDS011;7631;52.088;5.088;2023-02-10T01:33:15;7.97;;;6.40;;
15063;SDS011;7631;52.088;5.088;2023-02-10T01:35:40;8.90;;;6.77;;
15063;SDS011;7631;52.088;5.088;2023-02-10T01:38:05;7.80;;;6.10;;
15063;SDS011;7631;52.088;5.088;2023-02-10T01:40:31;8.93;;;6.63;;
15063;SDS011;7631;52.088;5.088;2023-02-10T01:42:56;8.43;;;6.47;;
15063;SDS011;7631;52.088;5.088;2023-02-10T01:45:31;7.90;;;6.20;;
15063;SDS011;7631;52.088;5.088;2023-02-10T01:47:56;7.57;;;6.07;;
15063;SDS011;7631;52.088;5.088;2023-02-10T01:50:23;7.70;;;6.17;;
15063;SDS011;7631;52.088;5.088;2023-02-10T01:52:49;7.50;;;6.00;;
15063;SDS011;7631;52.088;5.088;2023-02-10T01:55:16;7.70;;;5.80;;
15063;SDS011;7631;52.088;5.088;2023-02-10T01:57:42;8.97;;;6.50;;
15063;SDS011;7631;52.088;5.088;2023-02-10T02:00:08;8.47;;;6.30;;
15063;SDS011;7631;52.088;5.088;2023-02-10T02:02:34;8.97;;;6.10;;
15063;SDS011;7631;52.088;5.088;2023-02-10T02:05:00;8.80;;;6.50;;
15063;SDS011;7631;52.088;5.088;2023-02-10T02:07:27;7.33;;;5.60;;
15063;SDS011;7631;52.088;5.088;2023-02-10T02:09:53;8.47;;;5.93;;
15063;SDS011;7631;52.088;5.088;2023-02-10T02:15:13;6.90;;;5.60;;
15063;SDS011;7631;52.088;5.088;2023-02-10T02:31:30;9.83;;;5.87;;
15063;SDS011;7631;52.088;5.088;2023-02-10T02:36:41;7.37;;;5.87;;
15063;SDS011;7631;52.088;5.088;2023-02-10T02:39:10;8.30;;;6.07;;
15063;SDS011;7631;52.088;5.088;2023-02-10T02:41:35;6.27;;;5.33;;
15063;SDS011;7631;52.088;5.088;2023-02-10T02:44:01;8.30;;;6.27;;
15063;SDS011;7631;52.088;5.088;2023-02-10T02:49:17;6.90;;;5.50;;
15063;SDS011;7631;52.088;5.088;2023-02-10T02:51:48;6.63;;;5.53;;
15063;SDS011;7631;52.088;5.088;2023-02-10T02:57:07;6.30;;;5.63;;
15063;SDS011;7631;52.088;5.088;2023-02-10T03:02:01;7.07;;;5.83;;
15063;SDS011;7631;52.088;5.088;2023-02-10T03:04:28;6.20;;;5.27;;
15063;SDS011;7631;52.088;5.088;2023-02-10T03:06:53;7.10;;;5.70;;
15063;SDS011;7631;52.088;5.088;2023-02-10T03:09:20;6.63;;;5.20;;
15063;SDS011;7631;52.088;5.088;2023-02-10T03:11:45;6.10;;;5.50;;
15063;SDS011;7631;52.088;5.088;2023-02-10T03:14:10;8.10;;;5.67;;
15063;SDS011;7631;52.088;5.088;2023-02-10T03:16:35;6.23;;;5.10;;
15063;SDS011;7631;52.088;5.088;2023-02-10T03:19:00;7.30;;;5.73;;
15063;SDS011;7631;52.088;5.088;2023-02-10T03:21:26;9.30;;;6.53;;
15063;SDS011;7631;52.088;5.088;2023-02-10T03:23:51;8.37;;;5.80;;
15063;SDS011;7631;52.088;5.088;2023-02-10T03:26:16;7.87;;;6.13;;
15063;SDS011;7631;52.088;5.088;2023-02-10T03:28:41;7.53;;;5.93;;
15063;SDS011;7631;52.088;5.088;2023-02-10T03:31:07;7.53;;;5.87;;
15063;SDS011;7631;52.088;5.088;2023-02-10T03:33:32;7.50;;;6.00;;
15063;SDS011;7631;52.088;5.088;2023-02-10T03:35:58;7.90;;;5.80;;
15063;SDS011;7631;52.088;5.088;2023-02-10T03:38:23;7.63;;;5.70;;
15063;SDS011;7631;52.088;5.088;2023-02-10T03:40:50;8.63;;;6.10;;
15063;SDS011;7631;52.088;5.088;2023-02-10T03:43:15;8.07;;;6.20;;
15063;SDS011;7631;52.088;5.088;2023-02-10T03:45:40;8.13;;;5.87;;
15063;SDS011;7631;52.088;5.088;2023-02-10T03:48:06;7.37;;;6.20;;
15063;SDS011;7631;52.088;5.088;2023-02-10T03:50:31;9.30;;;6.70;;
15063;SDS011;7631;52.088;5.088;2023-02-10T03:52:56;7.87;;;5.73;;
15063;SDS011;7631;52.088;5.088;2023-02-10T03:55:21;7.87;;;6.30;;
15063;SDS011;7631;52.088;5.088;2023-02-10T03:57:46;8.50;;;6.33;;
15063;SDS011;7631;52.088;5.088;2023-02-10T04:00:12;7.93;;;6.20;;
15063;SDS011;7631;52.088;5.088;2023-02-10T04:02:37;8.40;;;6.23;;
15063;SDS011;7631;52.088;5.088;2023-02-10T04:05:03;7.07;;;5.37;;
15063;SDS011;7631;52.088;5.088;2023-02-10T04:07:28;8.13;;;6.80;;
15063;SDS011;7631;52.088;5.088;2023-02-10T04:09:53;7.07;;;6.00;;
15063;SDS011;7631;52.088;5.088;2023-02-10T04:12:18;8.53;;;6.23;;
15063;SDS011;7631;52.088;5.088;2023-02-10T04:14:43;7.90;;;6.23;;
15063;SDS011;7631;52.088;5.088;2023-02-10T04:17:09;9.00;;;6.63;;
15063;SDS011;7631;52.088;5.088;2023-02-10T04:19:34;8.43;;;6.33;;
15063;SDS011;7631;52.088;5.088;2023-02-10T04:21:59;7.63;;;6.47;;
15063;SDS011;7631;52.088;5.088;2023-02-10T04:24:24;7.83;;;6.20;;
15063;SDS011;7631;52.088;5.088;2023-02-10T04:26:50;8.03;;;6.57;;
15063;SDS011;7631;52.088;5.088;2023-02-10T04:29:15;7.67;;;6.27;;
15063;SDS011;7631;52.088;5.088;2023-02-10T04:31:40;8.37;;;6.40;;
15063;SDS011;7631;52.088;5.088;2023-02-10T04:34:05;9.50;;;6.83;;
15063;SDS011;7631;52.088;5.088;2023-02-10T04:36:31;9.33;;;7.10;;
15063;SDS011;7631;52.088;5.088;2023-02-10T04:38:56;9.43;;;7.13;;
15063;SDS011;7631;52.088;5.088;2023-02-10T04:41:21;8.03;;;6.83;;
15063;SDS011;7631;52.088;5.088;2023-02-10T04:43:46;9.53;;;6.63;;
15063;SDS011;7631;52.088;5.088;2023-02-10T04:46:12;8.43;;;6.37;;
15063;SDS011;7631;52.088;5.088;2023-02-10T04:48:37;9.57;;;7.40;;
15063;SDS011;7631;52.088;5.088;2023-02-10T04:51:06;8.97;;;6.83;;
15063;SDS011;7631;52.088;5.088;2023-02-10T04:53:31;9.63;;;7.27;;
15063;SDS011;7631;52.088;5.088;2023-02-10T04:55:56;7.40;;;6.23;;
15063;SDS011;7631;52.088;5.088;2023-02-10T04:58:21;9.23;;;6.57;;
15063;SDS011;7631;52.088;5.088;2023-02-10T05:00:47;9.20;;;6.73;;
15063;SDS011;7631;52.088;5.088;2023-02-10T05:03:12;8.30;;;6.37;;
15063;SDS011;7631;52.088;5.088;2023-02-10T05:05:37;9.13;;;7.07;;
15063;SDS011;7631;52.088;5.088;2023-02-10T05:08:02;8.93;;;7.20;;
15063;SDS011;7631;52.088;5.088;2023-02-10T05:10:28;10.27;;;7.83;;
15063;SDS011;7631;52.088;5.088;2023-02-10T05:12:53;8.97;;;7.13;;
15063;SDS011;7631;52.088;5.088;2023-02-10T05:15:18;9.80;;;6.83;;
15063;SDS011;7631;52.088;5.088;2023-02-10T05:17:43;9.83;;;7.43;;
15063;SDS011;7631;52.088;5.088;2023-02-10T05:20:08;9.50;;;6.80;;
15063;SDS011;7631;52.088;5.088;2023-02-10T05:22:34;9.63;;;7.00;;
15063;SDS011;7631;52.088;5.088;2023-02-10T05:25:00;9.23;;;7.27;;
15063;SDS011;7631;52.088;5.088;2023-02-10T05:27:25;8.67;;;6.77;;
15063;SDS011;7631;52.088;5.088;2023-02-10T05:29:50;9.33;;;7.50;;
15063;SDS011;7631;52.088;5.088;2023-02-10T05:32:15;9.30;;;6.90;;
15063;SDS011;7631;52.088;5.088;2023-02-10T05:34:40;11.07;;;7.33;;
15063;SDS011;7631;52.088;5.088;2023-02-10T05:37:06;8.90;;;7.23;;
15063;SDS011;7631;52.088;5.088;2023-02-10T05:39:31;10.27;;;7.50;;
15063;SDS011;7631;52.088;5.088;2023-02-10T05:41:57;10.37;;;7.70;;
15063;SDS011;7631;52.088;5.088;2023-02-10T05:44:23;8.93;;;6.87;;
15063;SDS011;7631;52.088;5.088;2023-02-10T05:46:49;9.40;;;6.97;;
15063;SDS011;7631;52.088;5.088;2023-02-10T05:49:14;9.03;;;7.47;;
15063;SDS011;7631;52.088;5.088;2023-02-10T05:51:40;11.33;;;7.87;;
15063;SDS011;7631;52.088;5.088;2023-02-10T05:54:05;9.53;;;7.37;;
15063;SDS011;7631;52.088;5.088;2023-02-10T05:56:30;10.40;;;7.77;;
15063;SDS011;7631;52.088;5.088;2023-02-10T05:58:55;11.97;;;7.93;;
15063;SDS011;7631;52.088;5.088;2023-02-10T06:01:21;9.37;;;7.30;;
15063;SDS011;7631;52.088;5.088;2023-02-10T06:03:46;9.93;;;7.53;;
15063;SDS011;7631;52.088;5.088;2023-02-10T06:06:11;9.97;;;7.40;;
15063;SDS011;7631;52.088;5.088;2023-02-10T06:08:37;11.20;;;7.63;;
15063;SDS011;7631;52.088;5.088;2023-02-10T06:11:02;10.00;;;7.60;;
15063;SDS011;7631;52.088;5.088;2023-02-10T06:13:27;10.00;;;7.63;;
15063;SDS011;7631;52.088;5.088;2023-02-10T06:15:52;10.73;;;8.33;;
15063;SDS011;7631;52.088;5.088;2023-02-10T06:18:18;9.00;;;7.33;;
15063;SDS011;7631;52.088;5.088;2023-02-10T06:20:46;9.93;;;7.40;;
15063;SDS011;7631;52.088;5.088;2023-02-10T06:23:11;9.53;;;7.43;;
15063;SDS011;7631;52.088;5.088;2023-02-10T06:25:37;10.10;;;8.03;;
15063;SDS011;7631;52.088;5.088;2023-02-10T06:28:02;10.30;;;8.07;;
15063;SDS011;7631;52.088;5.088;2023-02-10T06:30:27;10.50;;;8.03;;
15063;SDS011;7631;52.088;5.088;2023-02-10T06:32:52;12.63;;;8.40;;
15063;SDS011;7631;52.088;5.088;2023-02-10T06:35:18;10.33;;;8.07;;
15063;SDS011;7631;52.088;5.088;2023-02-10T06:37:43;9.83;;;7.70;;
15063;SDS011;7631;52.088;5.088;2023-02-10T06:40:08;10.40;;;7.20;;
15063;SDS011;7631;52.088;5.088;2023-02-10T06:42:34;9.63;;;7.77;;
15063;SDS011;7631;52.088;5.088;2023-02-10T06:44:59;10.57;;;7.83;;
15063;SDS011;7631;52.088;5.088;2023-02-10T06:47:25;11.37;;;7.60;;
15063;SDS011;7631;52.088;5.088;2023-02-10T06:49:50;10.17;;;7.83;;
15063;SDS011;7631;52.088;5.088;2023-02-10T06:52:17;9.77;;;7.53;;
15063;SDS011;7631;52.088;5.088;2023-02-10T06:54:42;9.70;;;7.53;;
15063;SDS011;7631;52.088;5.088;2023-02-10T06:57:07;10.13;;;7.27;;
15063;SDS011;7631;52.088;5.088;2023-02-10T06:59:33;9.90;;;7.33;;
15063;SDS011;7631;52.088;5.088;2023-02-10T07:01:58;9.13;;;7.47;;
15063;SDS011;7631;52.088;5.088;2023-02-10T07:04:28;10.30;;;7.30;;
15063;SDS011;7631;52.088;5.088;2023-02-10T07:06:54;9.50;;;7.43;;
15063;SDS011;7631;52.088;5.088;2023-02-10T07:09:19;10.77;;;9.30;;
15063;SDS011;7631;52.088;5.088;2023-02-10T07:11:44;9.53;;;7.53;;
15063;SDS011;7631;52.088;5.088;2023-02-10T07:14:10;10.40;;;7.47;;
15063;SDS011;7631;52.088;5.088;2023-02-10T07:16:35;9.77;;;7.20;;
15063;SDS011;7631;52.088;5.088;2023-02-10T07:19:00;9.57;;;7.60;;
15063;SDS011;7631;52.088;5.088;2023-02-10T07:21:25;9.73;;;7.13;;
15063;SDS011;7631;52.088;5.088;2023-02-10T07:23:50;8.90;;;6.87;;
15063;SDS011;7631;52.088;5.088;2023-02-10T07:26:16;9.53;;;6.83;;
15063;SDS011;7631;52.088;5.088;2023-02-10T07:28:43;9.47;;;7.30;;
15063;SDS011;7631;52.088;5.088;2023-02-10T07:31:08;9.70;;;7.03;;
15063;SDS011;7631;52.088;5.088;2023-02-10T07:33:33;9.10;;;7.03;;
15063;SDS011;7631;52.088;5.088;2023-02-10T07:35:59;9.03;;;7.20;;
15063;SDS011;7631;52.088;5.088;2023-02-10T07:38:25;9.23;;;7.20;;
15063;SDS011;7631;52.088;5.088;2023-02-10T07:40:50;9.30;;;6.97;;
15063;SDS011;7631;52.088;5.088;2023-02-10T07:43:16;8.93;;;6.63;;
15063;SDS011;7631;52.088;5.088;2023-02-10T07:45:41;8.13;;;6.90;;
15063;SDS011;7631;52.088;5.088;2023-02-10T07:48:06;9.40;;;7.40;;
15063;SDS011;7631;52.088;5.088;2023-02-10T07:50:31;9.40;;;7.03;;
15063;SDS011;7631;52.088;5.088;2023-02-10T07:52:56;8.00;;;6.57;;
15063;SDS011;7631;52.088;5.088;2023-02-10T07:55:22;9.90;;;8.90;;
15063;SDS011;7631;52.088;5.088;2023-02-10T07:57:47;9.53;;;7.63;;
15063;SDS011;7631;52.088;5.088;2023-02-10T08:00:12;9.10;;;7.93;;
15063;SDS011;7631;52.088;5.088;2023-02-10T08:02:38;10.47;;;7.83;;
15063;SDS011;7631;52.088;5.088;2023-02-10T08:05:03;9.47;;;7.47;;
15063;SDS011;7631;52.088;5.088;2023-02-10T08:07:29;9.27;;;7.40;;
15063;SDS011;7631;52.088;5.088;2023-02-10T08:09:54;8.73;;;6.80;;
15063;SDS011;7631;52.088;5.088;2023-02-10T08:12:19;10.50;;;7.37;;
15063;SDS011;7631;52.088;5.088;2023-02-10T08:14:45;8.63;;;7.07;;
15063;SDS011;7631;52.088;5.088;2023-02-10T08:17:10;10.33;;;7.67;;
15063;SDS011;7631;52.088;5.088;2023-02-10T08:19:35;9.83;;;7.87;;
15063;SDS011;7631;52.088;5.088;2023-02-10T08:22:02;9.60;;;7.37;;
15063;SDS011;7631;52.088;5.088;2023-02-10T08:24:27;11.33;;;8.27;;
15063;SDS011;7631;52.088;5.088;2023-02-10T08:26:52;9.53;;;7.63;;
15063;SDS011;7631;52.088;5.088;2023-02-10T08:29:17;9.13;;;7.13;;
15063;SDS011;7631;52.088;5.088;2023-02-10T08:31:42;9.27;;;7.80;;
15063;SDS011;7631;52.088;5.088;2023-02-10T08:34:13;8.27;;;7.37;;
15063;SDS011;7631;52.088;5.088;2023-02-10T08:36:39;8.63;;;7.20;;
15063;SDS011;7631;52.088;5.088;2023-02-10T08:39:04;8.93;;;7.47;;
15063;SDS011;7631;52.088;5.088;2023-02-10T08:41:29;10.50;;;8.07;;
15063;SDS011;7631;52.088;5.088;2023-02-10T08:43:56;9.47;;;7.50;;
15063;SDS011;7631;52.088;5.088;2023-02-10T08:46:21;9.67;;;7.67;;
15063;SDS011;7631;52.088;5.088;2023-02-10T08:48:47;9.30;;;7.50;;
15063;SDS011;7631;52.088;5.088;2023-02-10T08:51:12;9.33;;;7.70;;
15063;SDS011;7631;52.088;5.088;2023-02-10T08:53:38;9.23;;;7.60;;
15063;SDS011;7631;52.088;5.088;2023-02-10T08:56:04;8.83;;;6.90;;
15063;SDS011;7631;52.088;5.088;2023-02-10T08:58:30;9.43;;;7.83;;
15063;SDS011;7631;52.088;5.088;2023-02-10T09:00:55;11.20;;;8.23;;
15063;SDS011;7631;52.088;5.088;2023-02-10T09:03:20;9.73;;;7.87;;
15063;SDS011;7631;52.088;5.088;2023-02-10T09:05:46;8.90;;;7.40;;
15063;SDS011;7631;52.088;5.088;2023-02-10T09:08:13;9.27;;;7.47;;
15063;SDS011;7631;52.088;5.088;2023-02-10T09:10:39;10.93;;;7.93;;
15063;SDS011;7631;52.088;5.088;2023-02-10T09:13:04;9.33;;;8.10;;
15063;SDS011;7631;52.088;5.088;2023-02-10T09:15:29;10.33;;;8.00;;
15063;SDS011;7631;52.088;5.088;2023-02-10T09:17:55;10.60;;;8.03;;
15063;SDS011;7631;52.088;5.088;2023-02-10T09:20:20;10.57;;;8.17;;
15063;SDS011;7631;52.088;5.088;2023-02-10T09:22:45;9.83;;;7.57;;
15063;SDS011;7631;52.088;5.088;2023-02-10T09:25:12;9.43;;;7.73;;
15063;SDS011;7631;52.088;5.088;2023-02-10T09:27:38;10.53;;;8.27;;
15063;SDS011;7631;52.088;5.088;2023-02-10T09:30:03;10.07;;;8.50;;
15063;SDS011;7631;52.088;5.088;2023-02-10T09:32:29;11.10;;;7.80;;
15063;SDS011;7631;52.088;5.088;2023-02-10T09:34:54;10.50;;;8.10;;
15063;SDS011;7631;52.088;5.088;2023-02-10T09:37:19;10.60;;;7.97;;
15063;SDS011;7631;52.088;5.088;2023-02-10T09:39:46;10.20;;;7.50;;
15063;SDS011;7631;52.088;5.088;2023-02-10T09:44:44;12.03;;;8.43;;
15063;SDS011;7631;52.088;5.088;2023-02-10T09:47:30;9.90;;;8.07;;
15063;SDS011;7631;52.088;5.088;2023-02-10T09:55:12;10.40;;;9.00;;
15063;SDS011;7631;52.088;5.088;2023-02-10T09:58:21;10.40;;;8.23;;
15063;SDS011;7631;52.088;5.088;2023-02-10T10:00:29;12.43;;;9.27;;
15063;SDS011;7631;52.088;5.088;2023-02-10T10:02:55;10.17;;;8.57;;
15063;SDS011;7631;52.088;5.088;2023-02-10T10:05:23;10.07;;;8.73;;
15063;SDS011;7631;52.088;5.088;2023-02-10T10:07:53;11.40;;;8.73;;
15063;SDS011;7631;52.088;5.088;2023-02-10T10:10:24;11.73;;;9.53;;
15063;SDS011;7631;52.088;5.088;2023-02-10T10:12:51;10.90;;;8.63;;
15063;SDS011;7631;52.088;5.088;2023-02-10T10:15:17;10.60;;;8.90;;
15063;SDS011;7631;52.088;5.088;2023-02-10T10:17:50;11.47;;;8.07;;
15063;SDS011;7631;52.088;5.088;2023-02-10T10:27:53;10.30;;;8.87;;
15063;SDS011;7631;52.088;5.088;2023-02-10T10:30:31;13.23;;;9.03;;
15063;SDS011;7631;52.088;5.088;2023-02-10T10:32:58;13.87;;;9.67;;
15063;SDS011;7631;52.088;5.088;2023-02-10T10:35:26;12.47;;;9.80;;
15063;SDS011;7631;52.088;5.088;2023-02-10T10:37:54;12.37;;;9.93;;
15063;SDS011;7631;52.088;5.088;2023-02-10T10:40:21;14.03;;;10.47;;
15063;SDS011;7631;52.088;5.088;2023-02-10T10:42:51;12.27;;;10.03;;
15063;SDS011;7631;52.088;5.088;2023-02-10T10:45:22;16.10;;;11.37;;
15063;SDS011;7631;52.088;5.088;2023-02-10T10:50:15;13.80;;;10.47;;
15063;SDS011;7631;52.088;5.088;2023-02-10T10:52:41;15.87;;;11.67;;
15063;SDS011;7631;52.088;5.088;2023-02-10T10:55:29;13.73;;;11.10;;
15063;SDS011;7631;52.088;5.088;2023-02-10T10:57:52;15.17;;;10.93;;
15063;SDS011;7631;52.088;5.088;2023-02-10T11:00:19;13.70;;;10.63;;
15063;SDS011;7631;52.088;5.088;2023-02-10T11:02:55;14.37;;;10.80;;
15063;SDS011;7631;52.088;5.088;2023-02-10T11:05:21;13.77;;;10.73;;
15063;SDS011;7631;52.088;5.088;2023-02-10T11:07:48;15.03;;;11.17;;
15063;SDS011;7631;52.088;5.088;2023-02-10T11:12:58;14.60;;;10.80;;
15063;SDS011;7631;52.088;5.088;2023-02-10T11:17:52;15.77;;;11.37;;
15063;SDS011;7631;52.088;5.088;2023-02-10T11:20:31;14.97;;;11.53;;
15063;SDS011;7631;52.088;5.088;2023-02-10T11:23:18;13.90;;;11.03;;
15063;SDS011;7631;52.088;5.088;2023-02-10T11:25:47;14.23;;;10.80;;
15063;SDS011;7631;52.088;5.088;2023-02-10T11:28:17;14.87;;;10.20;;
15063;SDS011;7631;52.088;5.088;2023-02-10T11:30:42;16.63;;;11.67;;
15063;SDS011;7631;52.088;5.088;2023-02-10T11:33:18;14.33;;;10.80;;
15063;SDS011;7631;52.088;5.088;2023-02-10T11:35:48;13.37;;;10.67;;
15063;SDS011;7631;52.088;5.088;2023-02-10T11:38:16;14.13;;;10.63;;
15063;SDS011;7631;52.088;5.088;2023-02-10T11:41:02;13.00;;;10.33;;
15063;SDS011;7631;52.088;5.088;2023-02-10T11:43:35;12.97;;;10.13;;
15063;SDS011;7631;52.088;5.088;2023-02-10T11:46:02;13.23;;;10.60;;
15063;SDS011;7631;52.088;5.088;2023-02-10T11:48:29;12.80;;;10.87;;
15063;SDS011;7631;52.088;5.088;2023-02-10T11:51:01;14.23;;;10.57;;
15063;SDS011;7631;52.088;5.088;2023-02-10T11:53:28;16.27;;;11.50;;
15063;SDS011;7631;52.088;5.088;2023-02-10T12:01:11;13.67;;;11.23;;
15063;SDS011;7631;52.088;5.088;2023-02-10T12:06:23;12.90;;;10.67;;
15063;SDS011;7631;52.088;5.088;2023-02-10T12:14:06;13.67;;;10.83;;
15063;SDS011;7631;52.088;5.088;2023-02-10T12:16:41;13.63;;;10.63;;
15063;SDS011;7631;52.088;5.088;2023-02-10T12:19:22;14.87;;;10.73;;
15063;SDS011;7631;52.088;5.088;2023-02-10T12:21:54;13.83;;;10.67;;
15063;SDS011;7631;52.088;5.088;2023-02-10T12:24:34;15.57;;;11.23;;
15063;SDS011;7631;52.088;5.088;2023-02-10T12:27:04;15.90;;;12.03;;
15063;SDS011;7631;52.088;5.088;2023-02-10T12:39:52;13.67;;;11.23;;
15063;SDS011;7631;52.088;5.088;2023-02-10T12:45:10;15.03;;;12.00;;
15063;SDS011;7631;52.088;5.088;2023-02-10T12:52:58;17.37;;;12.60;;
15063;SDS011;7631;52.088;5.088;2023-02-10T12:58:13;17.40;;;12.00;;
15063;SDS011;7631;52.088;5.088;2023-02-10T13:00:41;16.50;;;11.40;;
15063;SDS011;7631;52.088;5.088;2023-02-10T13:03:16;16.80;;;11.80;;
15063;SDS011;7631;52.088;5.088;2023-02-10T13:05:48;18.90;;;13.30;;
15063;SDS011;7631;52.088;5.088;2023-02-10T13:08:17;21.93;;;14.10;;
15063;SDS011;7631;52.088;5.088;2023-02-10T13:10:45;18.63;;;13.43;;
15063;SDS011;7631;52.088;5.088;2023-02-10T13:13:12;17.20;;;12.43;;
15063;SDS011;7631;52.088;5.088;2023-02-10T13:15:40;20.07;;;14.10;;
15063;SDS011;7631;52.088;5.088;2023-02-10T13:21:11;17.37;;;12.80;;
15063;SDS011;7631;52.088;5.088;2023-02-10T13:23:40;18.13;;;12.63;;
15063;SDS011;7631;52.088;5.088;2023-02-10T13:28:39;21.17;;;13.93;;
15063;SDS011;7631;52.088;5.088;2023-02-10T13:34:04;20.07;;;14.00;;
15063;SDS011;7631;52.088;5.088;2023-02-10T13:36:38;20.77;;;13.93;;
15063;SDS011;7631;52.088;5.088;2023-02-10T13:39:21;22.27;;;15.00;;
15063;SDS011;7631;52.088;5.088;2023-02-10T13:41:48;18.50;;;13.23;;
15063;SDS011;7631;52.088;5.088;2023-02-10T13:44:25;20.60;;;14.17;;
15063;SDS011;7631;52.088;5.088;2023-02-10T13:46:54;24.17;;;14.87;;
15063;SDS011;7631;52.088;5.088;2023-02-10T13:49:20;20.77;;;14.00;;
15063;SDS011;7631;52.088;5.088;2023-02-10T13:51:45;19.73;;;14.30;;
15063;SDS011;7631;52.088;5.088;2023-02-10T13:54:27;20.37;;;14.30;;
15063;SDS011;7631;52.088;5.088;2023-02-10T13:56:54;22.60;;;14.77;;
15063;SDS011;7631;52.088;5.088;2023-02-10T14:06:48;23.03;;;16.37;;
15063;SDS011;7631;52.088;5.088;2023-02-10T14:11:53;23.70;;;15.87;;
15063;SDS011;7631;52.088;5.088;2023-02-10T14:14:26;23.80;;;16.83;;
15063;SDS011;7631;52.088;5.088;2023-02-10T14:16:52;25.80;;;16.53;;
15063;SDS011;7631;52.088;5.088;2023-02-10T14:19:30;22.57;;;16.77;;
15063;SDS011;7631;52.088;5.088;2023-02-10T14:21:56;23.43;;;17.83;;
15063;SDS011;7631;52.088;5.088;2023-02-10T14:24:23;23.10;;;16.83;;
15063;SDS011;7631;52.088;5.088;2023-02-10T14:26:49;21.80;;;16.33;;
15063;SDS011;7631;52.088;5.088;2023-02-10T14:29:15;24.17;;;17.53;;
15063;SDS011;7631;52.088;5.088;2023-02-10T14:31:41;26.33;;;17.57;;
15063;SDS011;7631;52.088;5.088;2023-02-10T14:34:18;22.27;;;16.30;;
15063;SDS011;7631;52.088;5.088;2023-02-10T14:36:51;23.40;;;16.47;;
15063;SDS011;7631;52.088;5.088;2023-02-10T14:39:20;25.57;;;18.47;;
15063;SDS011;7631;52.088;5.088;2023-02-10T14:41:45;26.40;;;18.67;;
15063;SDS011;7631;52.088;5.088;2023-02-10T14:44:25;24.57;;;17.87;;
15063;SDS011;7631;52.088;5.088;2023-02-10T14:46:51;25.77;;;17.97;;
15063;SDS011;7631;52.088;5.088;2023-02-10T14:49:18;25.40;;;18.73;;
15063;SDS011;7631;52.088;5.088;2023-02-10T14:51:44;23.63;;;17.77;;
15063;SDS011;7631;52.088;5.088;2023-02-10T14:54:10;26.90;;;18.47;;
15063;SDS011;7631;52.088;5.088;2023-02-10T14:56:35;22.57;;;17.27;;
15063;SDS011;7631;52.088;5.088;2023-02-10T14:59:00;25.13;;;18.70;;
15063;SDS011;7631;52.088;5.088;2023-02-10T15:01:26;25.47;;;18.07;;
15063;SDS011;7631;52.088;5.088;2023-02-10T15:03:54;26.63;;;18.80;;
15063;SDS011;7631;52.088;5.088;2023-02-10T15:06:22;26.83;;;19.17;;
15063;SDS011;7631;52.088;5.088;2023-02-10T15:08:52;25.47;;;18.50;;
15063;SDS011;7631;52.088;5.088;2023-02-10T15:11:23;23.53;;;18.50;;
15063;SDS011;7631;52.088;5.088;2023-02-10T15:14:22;26.43;;;18.73;;
15063;SDS011;7631;52.088;5.088;2023-02-10T15:16:49;26.00;;;18.57;;
15063;SDS011;7631;52.088;5.088;2023-02-10T15:19:15;26.83;;;19.33;;
15063;SDS011;7631;52.088;5.088;2023-02-10T15:21:41;27.53;;;19.57;;
15063;SDS011;7631;52.088;5.088;2023-02-10T15:24:27;23.97;;;18.07;;
15063;SDS011;7631;52.088;5.088;2023-02-10T15:26:52;27.77;;;19.40;;
15063;SDS011;7631;52.088;5.088;2023-02-10T15:29:18;25.43;;;18.67;;
15063;SDS011;7631;52.088;5.088;2023-02-10T15:31:53;23.63;;;18.13;;
15063;SDS011;7631;52.088;5.088;2023-02-10T15:34:26;26.47;;;19.17;;
15063;SDS011;7631;52.088;5.088;2023-02-10T15:36:58;28.77;;;19.43;;
15063;SDS011;7631;52.088;5.088;2023-02-10T15:39:26;27.27;;;19.43;;
15063;SDS011;7631;52.088;5.088;2023-02-10T15:46:43;25.70;;;19.40;;
15063;SDS011;7631;52.088;5.088;2023-02-10T15:49:13;27.23;;;18.97;;
15063;SDS011;7631;52.088;5.088;2023-02-10T15:51:52;26.27;;;19.37;;
15063;SDS011;7631;52.088;5.088;2023-02-10T15:54:18;26.23;;;19.00;;
15063;SDS011;7631;52.088;5.088;2023-02-10T15:56:57;26.03;;;19.03;;
15063;SDS011;7631;52.088;5.088;2023-02-10T15:59:22;27.13;;;18.60;;
15063;SDS011;7631;52.088;5.088;2023-02-10T16:01:52;26.60;;;19.23;;
15063;SDS011;7631;52.088;5.088;2023-02-10T16:04:17;25.57;;;18.57;;
15063;SDS011;7631;52.088;5.088;2023-02-10T16:06:42;24.37;;;18.37;;
15063;SDS011;7631;52.088;5.088;2023-02-10T16:09:08;25.80;;;19.37;;
15063;SDS011;7631;52.088;5.088;2023-02-10T16:11:34;28.47;;;20.30;;
15063;SDS011;7631;52.088;5.088;2023-02-10T16:13:59;27.23;;;19.90;;
15063;SDS011;7631;52.088;5.088;2023-02-10T16:16:24;27.67;;;20.73;;
15063;SDS011;7631;52.088;5.088;2023-02-10T16:18:50;25.50;;;18.73;;
15063;SDS011;7631;52.088;5.088;2023-02-10T16:21:15;25.07;;;18.43;;
15063;SDS011;7631;52.088;5.088;2023-02-10T16:23:41;25.33;;;19.77;;
15063;SDS011;7631;52.088;5.088;2023-02-10T16:26:06;24.40;;;19.43;;
15063;SDS011;7631;52.088;5.088;2023-02-10T16:28:33;28.13;;;20.60;;
15063;SDS011;7631;52.088;5.088;2023-02-10T16:30:59;26.07;;;19.30;;
15063;SDS011;7631;52.088;5.088;2023-02-10T16:33:24;26.93;;;19.70;;
15063;SDS011;7631;52.088;5.088;2023-02-10T16:35:49;28.03;;;19.37;;
15063;SDS011;7631;52.088;5.088;2023-02-10T16:38:14;27.83;;;19.43;;